sensor_id;sensor_type;location;lat;lon;timestamp;P1;durP1;ratioP1;P2;durP2;ratioP2
21420;SDS011;10871;50.144;8.428;2022-09-02T00:00:32;4.93;;;1.80;;
21420;SDS011;10871;50.144;8.428;2022-09-02T00:02:59;2.35;;;1.50;;
21420;SDS011;10871;50.144;8.428;2022-09-02T00:05:25;3.13;;;1.70;;
21420;SDS011;10871;50.144;8.428;2022-09-02T00:07:53;3.50;;;2.15;;
21420;SDS011;10871;50.144;8.428;2022-09-02T00:10:19;2.45;;;1.50;;
21420;SDS011;10871;50.144;8.428;2022-09-02T00:12:45;3.70;;;1.80;;
21420;SDS011;10871;50.144;8.428;2022-09-02T00:15:12;3.97;;;1.60;;
21420;SDS011;10871;50.144;8.428;2022-09-02T00:17:39;3.58;;;1.67;;
21420;SDS011;10871;50.144;8.428;2022-09-02T00:20:07;2.35;;;1.73;;
21420;SDS011;10871;50.144;8.428;2022-09-02T00:22:33;4.32;;;1.63;;
21420;SDS011;10871;50.144;8.428;2022-09-02T00:25:00;6.00;;;1.80;;
21420;SDS011;10871;50.144;8.428;2022-09-02T00:27:26;5.05;;;1.80;;
21420;SDS011;10871;50.144;8.428;2022-09-02T00:29:53;3.30;;;1.60;;
21420;SDS011;10871;50.144;8.428;2022-09-02T00:32:19;2.42;;;1.60;;
21420;SDS011;10871;50.144;8.428;2022-09-02T00:34:45;2.30;;;1.48;;
21420;SDS011;10871;50.144;8.428;2022-09-02T00:37:12;2.55;;;1.60;;
21420;SDS011;10871;50.144;8.428;2022-09-02T00:39:38;3.63;;;1.80;;
21420;SDS011;10871;50.144;8.428;2022-09-02T00:42:05;3.08;;;1.50;;
21420;SDS011;10871;50.144;8.428;2022-09-02T00:44:32;2.63;;;1.70;;
21420;SDS011;10871;50.144;8.428;2022-09-02T00:46:59;3.45;;;1.70;;
21420;SDS011;10871;50.144;8.428;2022-09-02T00:49:27;3.08;;;1.80;;
21420;SDS011;10871;50.144;8.428;2022-09-02T00:54:21;1.85;;;1.75;;
21420;SDS011;10871;50.144;8.428;2022-09-02T00:56:49;3.60;;;1.90;;
21420;SDS011;10871;50.144;8.428;2022-09-02T00:59:20;3.53;;;1.52;;
21420;SDS011;10871;50.144;8.428;2022-09-02T01:01:48;2.60;;;1.60;;
21420;SDS011;10871;50.144;8.428;2022-09-02T01:04:14;2.00;;;1.63;;
21420;SDS011;10871;50.144;8.428;2022-09-02T01:06:42;3.30;;;1.40;;
21420;SDS011;10871;50.144;8.428;2022-09-02T01:09:10;2.75;;;1.90;;
21420;SDS011;10871;50.144;8.428;2022-09-02T01:11:44;2.58;;;1.67;;
21420;SDS011;10871;50.144;8.428;2022-09-02T01:14:13;3.53;;;1.75;;
21420;SDS011;10871;50.144;8.428;2022-09-02T01:16:44;2.13;;;1.70;;
21420;SDS011;10871;50.144;8.428;2022-09-02T01:19:16;2.95;;;1.67;;
21420;SDS011;10871;50.144;8.428;2022-09-02T01:21:47;2.47;;;1.67;;
21420;SDS011;10871;50.144;8.428;2022-09-02T01:24:14;2.53;;;1.60;;
21420;SDS011;10871;50.144;8.428;2022-09-02T01:26:41;2.65;;;1.67;;
21420;SDS011;10871;50.144;8.428;2022-09-02T01:29:07;4.65;;;1.83;;
21420;SDS011;10871;50.144;8.428;2022-09-02T01:31:34;2.90;;;1.63;;
21420;SDS011;10871;50.144;8.428;2022-09-02T01:34:00;5.55;;;1.73;;
21420;SDS011;10871;50.144;8.428;2022-09-02T01:36:27;2.75;;;1.77;;
21420;SDS011;10871;50.144;8.428;2022-09-02T01:38:55;3.97;;;1.80;;
21420;SDS011;10871;50.144;8.428;2022-09-02T01:41:22;2.00;;;1.60;;
21420;SDS011;10871;50.144;8.428;2022-09-02T01:43:48;4.03;;;1.90;;
21420;SDS011;10871;50.144;8.428;2022-09-02T01:46:15;2.95;;;2.00;;
21420;SDS011;10871;50.144;8.428;2022-09-02T01:48:41;2.50;;;1.65;;
21420;SDS011;10871;50.144;8.428;2022-09-02T01:51:08;1.63;;;1.35;;
21420;SDS011;10871;50.144;8.428;2022-09-02T01:53:42;4.55;;;2.00;;
21420;SDS011;10871;50.144;8.428;2022-09-02T01:56:08;3.17;;;1.77;;
21420;SDS011;10871;50.144;8.428;2022-09-02T01:58:35;1.85;;;1.50;;
21420;SDS011;10871;50.144;8.428;2022-09-02T02:01:02;3.42;;;1.88;;
21420;SDS011;10871;50.144;8.428;2022-09-02T02:03:29;2.63;;;1.65;;
21420;SDS011;10871;50.144;8.428;2022-09-02T02:05:57;3.15;;;1.80;;
21420;SDS011;10871;50.144;8.428;2022-09-02T02:08:23;2.08;;;1.70;;
21420;SDS011;10871;50.144;8.428;2022-09-02T02:10:50;2.67;;;1.70;;
21420;SDS011;10871;50.144;8.428;2022-09-02T02:13:16;4.40;;;1.85;;
21420;SDS011;10871;50.144;8.428;2022-09-02T02:15:43;4.68;;;1.55;;
21420;SDS011;10871;50.144;8.428;2022-09-02T02:18:10;3.50;;;1.88;;
21420;SDS011;10871;50.144;8.428;2022-09-02T02:20:37;3.88;;;1.60;;
21420;SDS011;10871;50.144;8.428;2022-09-02T02:23:04;6.13;;;1.80;;
21420;SDS011;10871;50.144;8.428;2022-09-02T02:25:34;2.70;;;1.70;;
21420;SDS011;10871;50.144;8.428;2022-09-02T02:28:00;1.75;;;1.65;;
21420;SDS011;10871;50.144;8.428;2022-09-02T02:30:29;2.83;;;1.63;;
21420;SDS011;10871;50.144;8.428;2022-09-02T02:32:56;2.78;;;1.67;;
21420;SDS011;10871;50.144;8.428;2022-09-02T02:35:23;2.65;;;1.50;;
21420;SDS011;10871;50.144;8.428;2022-09-02T02:37:50;3.33;;;1.55;;
21420;SDS011;10871;50.144;8.428;2022-09-02T02:40:18;5.38;;;1.60;;
21420;SDS011;10871;50.144;8.428;2022-09-02T02:42:46;3.85;;;2.00;;
21420;SDS011;10871;50.144;8.428;2022-09-02T02:45:13;2.42;;;1.60;;
21420;SDS011;10871;50.144;8.428;2022-09-02T02:47:41;4.90;;;2.08;;
21420;SDS011;10871;50.144;8.428;2022-09-02T02:50:09;2.70;;;1.90;;
21420;SDS011;10871;50.144;8.428;2022-09-02T02:52:37;4.32;;;2.00;;
21420;SDS011;10871;50.144;8.428;2022-09-02T02:55:04;2.88;;;1.95;;
21420;SDS011;10871;50.144;8.428;2022-09-02T02:57:32;5.18;;;1.85;;
21420;SDS011;10871;50.144;8.428;2022-09-02T03:00:13;2.08;;;1.88;;
21420;SDS011;10871;50.144;8.428;2022-09-02T03:02:40;3.15;;;1.60;;
21420;SDS011;10871;50.144;8.428;2022-09-02T03:05:07;3.47;;;1.58;;
21420;SDS011;10871;50.144;8.428;2022-09-02T03:07:34;3.15;;;1.50;;
21420;SDS011;10871;50.144;8.428;2022-09-02T03:10:04;1.95;;;1.73;;
21420;SDS011;10871;50.144;8.428;2022-09-02T03:12:34;3.67;;;1.70;;
21420;SDS011;10871;50.144;8.428;2022-09-02T03:15:02;2.45;;;1.70;;
21420;SDS011;10871;50.144;8.428;2022-09-02T03:17:29;4.45;;;1.70;;
21420;SDS011;10871;50.144;8.428;2022-09-02T03:19:56;2.25;;;1.67;;
21420;SDS011;10871;50.144;8.428;2022-09-02T03:22:26;4.60;;;1.52;;
21420;SDS011;10871;50.144;8.428;2022-09-02T03:24:53;5.38;;;2.00;;
21420;SDS011;10871;50.144;8.428;2022-09-02T03:27:21;3.90;;;2.00;;
21420;SDS011;10871;50.144;8.428;2022-09-02T03:29:47;2.30;;;1.63;;
21420;SDS011;10871;50.144;8.428;2022-09-02T03:32:15;3.17;;;2.10;;
21420;SDS011;10871;50.144;8.428;2022-09-02T03:34:42;2.05;;;1.90;;
21420;SDS011;10871;50.144;8.428;2022-09-02T03:37:09;2.92;;;1.80;;
21420;SDS011;10871;50.144;8.428;2022-09-02T03:39:36;2.17;;;1.95;;
21420;SDS011;10871;50.144;8.428;2022-09-02T03:42:03;2.22;;;1.85;;
21420;SDS011;10871;50.144;8.428;2022-09-02T03:44:31;3.15;;;1.85;;
21420;SDS011;10871;50.144;8.428;2022-09-02T03:46:59;4.25;;;2.10;;
21420;SDS011;10871;50.144;8.428;2022-09-02T03:49:25;2.60;;;1.80;;
21420;SDS011;10871;50.144;8.428;2022-09-02T03:51:55;2.75;;;2.03;;
21420;SDS011;10871;50.144;8.428;2022-09-02T03:54:21;2.95;;;1.88;;
21420;SDS011;10871;50.144;8.428;2022-09-02T03:56:49;3.60;;;1.90;;
21420;SDS011;10871;50.144;8.428;2022-09-02T03:59:16;3.17;;;1.90;;
21420;SDS011;10871;50.144;8.428;2022-09-02T04:01:43;4.70;;;1.73;;
21420;SDS011;10871;50.144;8.428;2022-09-02T04:04:10;3.50;;;2.03;;
21420;SDS011;10871;50.144;8.428;2022-09-02T04:06:38;2.65;;;1.80;;
21420;SDS011;10871;50.144;8.428;2022-09-02T04:09:05;3.53;;;1.73;;
21420;SDS011;10871;50.144;8.428;2022-09-02T04:11:32;3.58;;;1.98;;
21420;SDS011;10871;50.144;8.428;2022-09-02T04:13:59;3.40;;;1.75;;
21420;SDS011;10871;50.144;8.428;2022-09-02T04:16:27;2.58;;;1.80;;
21420;SDS011;10871;50.144;8.428;2022-09-02T04:18:58;9.70;;;2.25;;
21420;SDS011;10871;50.144;8.428;2022-09-02T04:21:27;3.88;;;1.95;;
21420;SDS011;10871;50.144;8.428;2022-09-02T04:23:55;2.38;;;1.90;;
21420;SDS011;10871;50.144;8.428;2022-09-02T04:26:21;2.53;;;1.90;;
21420;SDS011;10871;50.144;8.428;2022-09-02T04:28:52;3.83;;;1.90;;
21420;SDS011;10871;50.144;8.428;2022-09-02T04:31:21;3.90;;;2.10;;
21420;SDS011;10871;50.144;8.428;2022-09-02T04:33:48;2.50;;;1.85;;
21420;SDS011;10871;50.144;8.428;2022-09-02T04:36:16;4.07;;;1.80;;
21420;SDS011;10871;50.144;8.428;2022-09-02T04:38:45;3.88;;;1.85;;
21420;SDS011;10871;50.144;8.428;2022-09-02T04:41:16;5.30;;;2.03;;
21420;SDS011;10871;50.144;8.428;2022-09-02T04:43:43;4.35;;;1.98;;
21420;SDS011;10871;50.144;8.428;2022-09-02T04:46:11;2.75;;;1.60;;
21420;SDS011;10871;50.144;8.428;2022-09-02T04:48:41;3.60;;;1.90;;
21420;SDS011;10871;50.144;8.428;2022-09-02T04:51:09;5.43;;;1.90;;
21420;SDS011;10871;50.144;8.428;2022-09-02T04:53:36;2.42;;;1.90;;
21420;SDS011;10871;50.144;8.428;2022-09-02T04:56:04;5.88;;;1.90;;
21420;SDS011;10871;50.144;8.428;2022-09-02T04:58:31;4.68;;;1.80;;
21420;SDS011;10871;50.144;8.428;2022-09-02T05:00:58;4.03;;;1.80;;
21420;SDS011;10871;50.144;8.428;2022-09-02T05:03:25;3.55;;;2.13;;
21420;SDS011;10871;50.144;8.428;2022-09-02T05:06:04;3.65;;;1.80;;
21420;SDS011;10871;50.144;8.428;2022-09-02T05:08:32;3.80;;;1.92;;
21420;SDS011;10871;50.144;8.428;2022-09-02T05:10:59;4.93;;;1.88;;
21420;SDS011;10871;50.144;8.428;2022-09-02T05:13:28;4.00;;;1.95;;
21420;SDS011;10871;50.144;8.428;2022-09-02T05:15:55;3.28;;;1.75;;
21420;SDS011;10871;50.144;8.428;2022-09-02T05:18:22;2.00;;;1.85;;
21420;SDS011;10871;50.144;8.428;2022-09-02T05:20:48;3.05;;;1.70;;
21420;SDS011;10871;50.144;8.428;2022-09-02T05:23:16;4.38;;;2.00;;
21420;SDS011;10871;50.144;8.428;2022-09-02T05:25:45;4.85;;;1.85;;
21420;SDS011;10871;50.144;8.428;2022-09-02T05:28:13;5.05;;;1.98;;
21420;SDS011;10871;50.144;8.428;2022-09-02T05:30:40;3.35;;;1.90;;
21420;SDS011;10871;50.144;8.428;2022-09-02T05:33:08;3.08;;;1.80;;
21420;SDS011;10871;50.144;8.428;2022-09-02T05:35:42;2.97;;;1.85;;
21420;SDS011;10871;50.144;8.428;2022-09-02T05:38:14;4.57;;;1.70;;
21420;SDS011;10871;50.144;8.428;2022-09-02T05:40:40;2.97;;;1.90;;
21420;SDS011;10871;50.144;8.428;2022-09-02T05:43:08;3.00;;;1.70;;
21420;SDS011;10871;50.144;8.428;2022-09-02T05:45:36;8.25;;;2.10;;
21420;SDS011;10871;50.144;8.428;2022-09-02T05:48:03;6.30;;;1.80;;
21420;SDS011;10871;50.144;8.428;2022-09-02T05:50:50;3.22;;;1.90;;
21420;SDS011;10871;50.144;8.428;2022-09-02T05:53:24;2.60;;;1.80;;
21420;SDS011;10871;50.144;8.428;2022-09-02T05:55:52;3.10;;;1.90;;
21420;SDS011;10871;50.144;8.428;2022-09-02T05:58:18;2.42;;;1.80;;
21420;SDS011;10871;50.144;8.428;2022-09-02T06:00:45;3.53;;;1.92;;
21420;SDS011;10871;50.144;8.428;2022-09-02T06:03:11;6.57;;;1.80;;
21420;SDS011;10871;50.144;8.428;2022-09-02T06:05:37;3.38;;;1.80;;
21420;SDS011;10871;50.144;8.428;2022-09-02T06:08:13;3.90;;;1.95;;
21420;SDS011;10871;50.144;8.428;2022-09-02T06:10:41;4.10;;;2.03;;
21420;SDS011;10871;50.144;8.428;2022-09-02T06:13:10;5.75;;;2.08;;
21420;SDS011;10871;50.144;8.428;2022-09-02T06:15:40;3.28;;;1.75;;
21420;SDS011;10871;50.144;8.428;2022-09-02T06:18:10;4.05;;;1.83;;
21420;SDS011;10871;50.144;8.428;2022-09-02T06:20:40;2.78;;;1.77;;
21420;SDS011;10871;50.144;8.428;2022-09-02T06:23:08;5.80;;;1.90;;
21420;SDS011;10871;50.144;8.428;2022-09-02T06:25:36;5.80;;;2.13;;
21420;SDS011;10871;50.144;8.428;2022-09-02T06:28:05;4.70;;;1.85;;
21420;SDS011;10871;50.144;8.428;2022-09-02T06:30:37;2.97;;;2.20;;
21420;SDS011;10871;50.144;8.428;2022-09-02T06:33:04;3.30;;;2.25;;
21420;SDS011;10871;50.144;8.428;2022-09-02T06:35:30;3.72;;;2.03;;
21420;SDS011;10871;50.144;8.428;2022-09-02T06:38:01;3.83;;;1.90;;
21420;SDS011;10871;50.144;8.428;2022-09-02T06:40:28;2.67;;;2.00;;
21420;SDS011;10871;50.144;8.428;2022-09-02T06:42:55;2.95;;;2.20;;
21420;SDS011;10871;50.144;8.428;2022-09-02T06:45:29;5.20;;;2.10;;
21420;SDS011;10871;50.144;8.428;2022-09-02T06:48:00;2.15;;;1.95;;
21420;SDS011;10871;50.144;8.428;2022-09-02T06:50:32;3.53;;;1.98;;
21420;SDS011;10871;50.144;8.428;2022-09-02T06:53:03;5.25;;;1.80;;
21420;SDS011;10871;50.144;8.428;2022-09-02T06:55:35;2.65;;;2.20;;
21420;SDS011;10871;50.144;8.428;2022-09-02T06:58:02;2.53;;;1.90;;
21420;SDS011;10871;50.144;8.428;2022-09-02T07:00:29;2.65;;;2.10;;
21420;SDS011;10871;50.144;8.428;2022-09-02T07:02:57;1.90;;;1.70;;
21420;SDS011;10871;50.144;8.428;2022-09-02T07:05:42;2.10;;;1.70;;
21420;SDS011;10871;50.144;8.428;2022-09-02T07:08:09;2.75;;;1.83;;
21420;SDS011;10871;50.144;8.428;2022-09-02T07:10:37;3.72;;;1.85;;
21420;SDS011;10871;50.144;8.428;2022-09-02T07:13:06;2.47;;;1.90;;
21420;SDS011;10871;50.144;8.428;2022-09-02T07:15:34;5.75;;;1.73;;
21420;SDS011;10871;50.144;8.428;2022-09-02T07:18:00;2.90;;;1.60;;
21420;SDS011;10871;50.144;8.428;2022-09-02T07:20:33;2.28;;;1.73;;
21420;SDS011;10871;50.144;8.428;2022-09-02T07:23:01;5.00;;;2.17;;
21420;SDS011;10871;50.144;8.428;2022-09-02T07:25:30;5.60;;;2.10;;
21420;SDS011;10871;50.144;8.428;2022-09-02T07:27:57;1.85;;;1.70;;
21420;SDS011;10871;50.144;8.428;2022-09-02T07:30:24;3.28;;;2.15;;
21420;SDS011;10871;50.144;8.428;2022-09-02T07:32:57;5.90;;;1.88;;
21420;SDS011;10871;50.144;8.428;2022-09-02T07:35:26;3.78;;;1.90;;
21420;SDS011;10871;50.144;8.428;2022-09-02T07:37:54;2.00;;;1.80;;
21420;SDS011;10871;50.144;8.428;2022-09-02T07:40:20;3.60;;;1.67;;
21420;SDS011;10871;50.144;8.428;2022-09-02T07:42:48;3.63;;;2.00;;
21420;SDS011;10871;50.144;8.428;2022-09-02T07:45:16;5.70;;;1.70;;
21420;SDS011;10871;50.144;8.428;2022-09-02T07:47:43;2.75;;;1.75;;
21420;SDS011;10871;50.144;8.428;2022-09-02T07:50:12;4.28;;;2.00;;
21420;SDS011;10871;50.144;8.428;2022-09-02T07:52:50;2.10;;;1.63;;
21420;SDS011;10871;50.144;8.428;2022-09-02T07:55:16;5.13;;;2.13;;
21420;SDS011;10871;50.144;8.428;2022-09-02T07:57:43;2.20;;;1.73;;
21420;SDS011;10871;50.144;8.428;2022-09-02T08:00:10;4.43;;;1.90;;
21420;SDS011;10871;50.144;8.428;2022-09-02T08:02:44;3.70;;;2.00;;
21420;SDS011;10871;50.144;8.428;2022-09-02T08:05:16;6.30;;;2.05;;
21420;SDS011;10871;50.144;8.428;2022-09-02T08:07:42;2.88;;;1.90;;
21420;SDS011;10871;50.144;8.428;2022-09-02T08:10:09;4.50;;;1.75;;
21420;SDS011;10871;50.144;8.428;2022-09-02T08:12:39;3.83;;;1.80;;
21420;SDS011;10871;50.144;8.428;2022-09-02T08:15:06;3.70;;;1.90;;
21420;SDS011;10871;50.144;8.428;2022-09-02T08:17:33;3.25;;;2.03;;
21420;SDS011;10871;50.144;8.428;2022-09-02T08:20:00;2.92;;;1.63;;
21420;SDS011;10871;50.144;8.428;2022-09-02T08:22:33;5.40;;;2.35;;
21420;SDS011;10871;50.144;8.428;2022-09-02T08:25:01;3.45;;;2.20;;
21420;SDS011;10871;50.144;8.428;2022-09-02T08:27:27;4.80;;;1.70;;
21420;SDS011;10871;50.144;8.428;2022-09-02T08:29:53;2.10;;;1.90;;
21420;SDS011;10871;50.144;8.428;2022-09-02T08:32:20;3.80;;;1.95;;
21420;SDS011;10871;50.144;8.428;2022-09-02T08:34:46;4.03;;;1.92;;
21420;SDS011;10871;50.144;8.428;2022-09-02T08:37:13;2.25;;;2.00;;
21420;SDS011;10871;50.144;8.428;2022-09-02T08:39:39;5.03;;;2.05;;
21420;SDS011;10871;50.144;8.428;2022-09-02T08:44:33;6.47;;;1.80;;
21420;SDS011;10871;50.144;8.428;2022-09-02T08:47:01;2.33;;;1.80;;
21420;SDS011;10871;50.144;8.428;2022-09-02T08:49:37;3.17;;;1.90;;
21420;SDS011;10871;50.144;8.428;2022-09-02T08:52:05;3.15;;;2.00;;
21420;SDS011;10871;50.144;8.428;2022-09-02T08:54:36;1.90;;;1.80;;
21420;SDS011;10871;50.144;8.428;2022-09-02T08:57:06;2.47;;;1.67;;
21420;SDS011;10871;50.144;8.428;2022-09-02T08:59:34;2.90;;;1.95;;
21420;SDS011;10871;50.144;8.428;2022-09-02T09:05:09;2.58;;;2.10;;
21420;SDS011;10871;50.144;8.428;2022-09-02T09:15:31;3.20;;;1.70;;
21420;SDS011;10871;50.144;8.428;2022-09-02T09:17:59;4.03;;;1.85;;
21420;SDS011;10871;50.144;8.428;2022-09-02T09:20:32;3.90;;;2.00;;
21420;SDS011;10871;50.144;8.428;2022-09-02T09:23:00;2.45;;;1.77;;
21420;SDS011;10871;50.144;8.428;2022-09-02T09:25:27;2.20;;;2.00;;
21420;SDS011;10871;50.144;8.428;2022-09-02T09:28:00;2.08;;;1.70;;
21420;SDS011;10871;50.144;8.428;2022-09-02T09:30:27;2.55;;;1.90;;
21420;SDS011;10871;50.144;8.428;2022-09-02T09:32:57;6.13;;;2.13;;
21420;SDS011;10871;50.144;8.428;2022-09-02T09:35:45;2.95;;;1.80;;
21420;SDS011;10871;50.144;8.428;2022-09-02T09:38:12;2.92;;;1.75;;
21420;SDS011;10871;50.144;8.428;2022-09-02T09:40:39;1.98;;;1.70;;
21420;SDS011;10871;50.144;8.428;2022-09-02T09:45:49;4.22;;;2.15;;
21420;SDS011;10871;50.144;8.428;2022-09-02T09:48:23;2.78;;;1.65;;
21420;SDS011;10871;50.144;8.428;2022-09-02T09:53:31;2.05;;;1.80;;
21420;SDS011;10871;50.144;8.428;2022-09-02T09:56:02;3.53;;;2.00;;
21420;SDS011;10871;50.144;8.428;2022-09-02T10:03:41;3.65;;;1.90;;
21420;SDS011;10871;50.144;8.428;2022-09-02T10:06:16;3.75;;;1.98;;
21420;SDS011;10871;50.144;8.428;2022-09-02T10:09:03;1.83;;;1.70;;
21420;SDS011;10871;50.144;8.428;2022-09-02T10:11:30;3.53;;;1.50;;
21420;SDS011;10871;50.144;8.428;2022-09-02T10:13:58;4.15;;;1.73;;
21420;SDS011;10871;50.144;8.428;2022-09-02T10:19:01;4.25;;;1.73;;
21420;SDS011;10871;50.144;8.428;2022-09-02T10:26:59;1.65;;;1.55;;
21420;SDS011;10871;50.144;8.428;2022-09-02T10:42:06;2.83;;;1.23;;
21420;SDS011;10871;50.144;8.428;2022-09-02T10:44:49;2.38;;;1.50;;
21420;SDS011;10871;50.144;8.428;2022-09-02T10:50:14;2.75;;;1.40;;
21420;SDS011;10871;50.144;8.428;2022-09-02T10:57:45;3.10;;;1.33;;
21420;SDS011;10871;50.144;8.428;2022-09-02T11:00:17;1.98;;;1.20;;
21420;SDS011;10871;50.144;8.428;2022-09-02T11:02:46;2.72;;;1.50;;
21420;SDS011;10871;50.144;8.428;2022-09-02T11:05:15;2.33;;;1.40;;
21420;SDS011;10871;50.144;8.428;2022-09-02T11:10:37;3.97;;;1.50;;
21420;SDS011;10871;50.144;8.428;2022-09-02T11:13:05;3.22;;;1.10;;
21420;SDS011;10871;50.144;8.428;2022-09-02T11:21:02;2.22;;;1.20;;
21420;SDS011;10871;50.144;8.428;2022-09-02T11:26:01;1.50;;;1.40;;
21420;SDS011;10871;50.144;8.428;2022-09-02T11:28:47;1.50;;;1.40;;
21420;SDS011;10871;50.144;8.428;2022-09-02T11:31:23;2.55;;;1.40;;
21420;SDS011;10871;50.144;8.428;2022-09-02T11:36:24;1.30;;;1.20;;
21420;SDS011;10871;50.144;8.428;2022-09-02T11:49:45;4.50;;;1.40;;
21420;SDS011;10871;50.144;8.428;2022-09-02T11:55:05;2.35;;;1.30;;
21420;SDS011;10871;50.144;8.428;2022-09-02T11:57:33;1.73;;;1.33;;
21420;SDS011;10871;50.144;8.428;2022-09-02T12:00:01;1.63;;;1.35;;
21420;SDS011;10871;50.144;8.428;2022-09-02T12:02:46;2.08;;;1.23;;
21420;SDS011;10871;50.144;8.428;2022-09-02T12:07:58;2.22;;;1.25;;
21420;SDS011;10871;50.144;8.428;2022-09-02T12:13:09;3.47;;;1.67;;
21420;SDS011;10871;50.144;8.428;2022-09-02T12:15:38;2.50;;;1.50;;
21420;SDS011;10871;50.144;8.428;2022-09-02T12:18:11;3.85;;;1.48;;
21420;SDS011;10871;50.144;8.428;2022-09-02T12:23:07;5.68;;;1.50;;
21420;SDS011;10871;50.144;8.428;2022-09-02T12:25:35;3.17;;;1.40;;
21420;SDS011;10871;50.144;8.428;2022-09-02T12:33:30;2.13;;;1.60;;
21420;SDS011;10871;50.144;8.428;2022-09-02T12:35:57;2.40;;;1.42;;
21420;SDS011;10871;50.144;8.428;2022-09-02T12:46:02;2.65;;;1.35;;
21420;SDS011;10871;50.144;8.428;2022-09-02T12:48:37;1.50;;;1.40;;
21420;SDS011;10871;50.144;8.428;2022-09-02T12:51:07;5.45;;;1.55;;
21420;SDS011;10871;50.144;8.428;2022-09-02T12:53:41;5.45;;;1.42;;
21420;SDS011;10871;50.144;8.428;2022-09-02T12:58:44;2.72;;;1.40;;
21420;SDS011;10871;50.144;8.428;2022-09-02T13:06:08;3.50;;;1.52;;
21420;SDS011;10871;50.144;8.428;2022-09-02T13:08:47;1.30;;;1.20;;
21420;SDS011;10871;50.144;8.428;2022-09-02T13:11:23;2.22;;;1.17;;
21420;SDS011;10871;50.144;8.428;2022-09-02T13:16:29;1.98;;;1.45;;
21420;SDS011;10871;50.144;8.428;2022-09-02T13:26:49;3.45;;;1.27;;
21420;SDS011;10871;50.144;8.428;2022-09-02T13:29:29;3.28;;;1.40;;
21420;SDS011;10871;50.144;8.428;2022-09-02T13:34:39;3.70;;;1.30;;
21420;SDS011;10871;50.144;8.428;2022-09-02T13:37:06;1.38;;;1.00;;
21420;SDS011;10871;50.144;8.428;2022-09-02T13:39:51;5.85;;;1.10;;
21420;SDS011;10871;50.144;8.428;2022-09-02T13:42:18;1.45;;;1.30;;
21420;SDS011;10871;50.144;8.428;2022-09-02T13:44:48;6.75;;;1.55;;
21420;SDS011;10871;50.144;8.428;2022-09-02T13:47:16;1.52;;;1.35;;
21420;SDS011;10871;50.144;8.428;2022-09-02T13:49:44;2.22;;;1.17;;
21420;SDS011;10871;50.144;8.428;2022-09-02T13:52:18;3.03;;;1.30;;
21420;SDS011;10871;50.144;8.428;2022-09-02T13:54:51;2.47;;;1.30;;
21420;SDS011;10871;50.144;8.428;2022-09-02T13:57:21;2.50;;;1.30;;
21420;SDS011;10871;50.144;8.428;2022-09-02T13:59:51;3.08;;;1.20;;
21420;SDS011;10871;50.144;8.428;2022-09-02T14:02:34;3.03;;;1.08;;
21420;SDS011;10871;50.144;8.428;2022-09-02T14:05:12;4.65;;;1.30;;
21420;SDS011;10871;50.144;8.428;2022-09-02T14:07:42;1.65;;;1.08;;
21420;SDS011;10871;50.144;8.428;2022-09-02T14:10:10;3.63;;;1.13;;
21420;SDS011;10871;50.144;8.428;2022-09-02T14:12:37;5.00;;;1.10;;
21420;SDS011;10871;50.144;8.428;2022-09-02T14:15:05;2.40;;;1.30;;
21420;SDS011;10871;50.144;8.428;2022-09-02T14:17:32;4.32;;;1.23;;
21420;SDS011;10871;50.144;8.428;2022-09-02T14:20:16;3.38;;;1.30;;
21420;SDS011;10871;50.144;8.428;2022-09-02T14:22:43;2.00;;;1.20;;
21420;SDS011;10871;50.144;8.428;2022-09-02T14:25:17;2.42;;;1.10;;
21420;SDS011;10871;50.144;8.428;2022-09-02T14:27:47;3.38;;;0.95;;
21420;SDS011;10871;50.144;8.428;2022-09-02T14:30:23;4.60;;;1.30;;
21420;SDS011;10871;50.144;8.428;2022-09-02T14:33:14;2.25;;;1.38;;
21420;SDS011;10871;50.144;8.428;2022-09-02T14:35:37;4.32;;;1.30;;
21420;SDS011;10871;50.144;8.428;2022-09-02T14:38:03;3.78;;;1.17;;
21420;SDS011;10871;50.144;8.428;2022-09-02T14:40:34;1.30;;;1.08;;
21420;SDS011;10871;50.144;8.428;2022-09-02T14:43:01;2.88;;;1.10;;
21420;SDS011;10871;50.144;8.428;2022-09-02T14:45:32;3.35;;;1.20;;
21420;SDS011;10871;50.144;8.428;2022-09-02T14:47:59;2.92;;;1.20;;
21420;SDS011;10871;50.144;8.428;2022-09-02T14:50:29;2.35;;;1.17;;
21420;SDS011;10871;50.144;8.428;2022-09-02T14:52:58;3.25;;;1.20;;
21420;SDS011;10871;50.144;8.428;2022-09-02T14:58:24;4.30;;;1.20;;
21420;SDS011;10871;50.144;8.428;2022-09-02T15:00:53;1.88;;;1.40;;
21420;SDS011;10871;50.144;8.428;2022-09-02T15:03:21;2.97;;;1.30;;
21420;SDS011;10871;50.144;8.428;2022-09-02T15:05:48;2.08;;;1.13;;
21420;SDS011;10871;50.144;8.428;2022-09-02T15:08:15;4.95;;;1.45;;
21420;SDS011;10871;50.144;8.428;2022-09-02T15:10:41;1.48;;;1.10;;
21420;SDS011;10871;50.144;8.428;2022-09-02T15:13:09;4.40;;;1.25;;
21420;SDS011;10871;50.144;8.428;2022-09-02T15:15:37;2.55;;;1.20;;
21420;SDS011;10871;50.144;8.428;2022-09-02T15:18:04;3.20;;;1.05;;
21420;SDS011;10871;50.144;8.428;2022-09-02T15:20:34;1.35;;;1.25;;
21420;SDS011;10871;50.144;8.428;2022-09-02T15:23:00;2.20;;;1.40;;
21420;SDS011;10871;50.144;8.428;2022-09-02T15:25:27;4.25;;;1.20;;
21420;SDS011;10871;50.144;8.428;2022-09-02T15:27:53;2.10;;;1.30;;
21420;SDS011;10871;50.144;8.428;2022-09-02T15:30:20;2.17;;;1.30;;
21420;SDS011;10871;50.144;8.428;2022-09-02T15:32:46;1.83;;;1.23;;
21420;SDS011;10871;50.144;8.428;2022-09-02T15:35:13;1.88;;;1.20;;
21420;SDS011;10871;50.144;8.428;2022-09-02T15:37:39;4.40;;;1.42;;
21420;SDS011;10871;50.144;8.428;2022-09-02T15:40:06;3.28;;;1.00;;
21420;SDS011;10871;50.144;8.428;2022-09-02T15:42:36;3.53;;;1.25;;
21420;SDS011;10871;50.144;8.428;2022-09-02T15:45:04;1.88;;;1.05;;
21420;SDS011;10871;50.144;8.428;2022-09-02T15:47:33;2.88;;;1.20;;
21420;SDS011;10871;50.144;8.428;2022-09-02T15:49:59;2.28;;;1.10;;
21420;SDS011;10871;50.144;8.428;2022-09-02T15:52:26;2.00;;;1.30;;
21420;SDS011;10871;50.144;8.428;2022-09-02T15:54:53;1.33;;;1.10;;
21420;SDS011;10871;50.144;8.428;2022-09-02T15:57:20;2.55;;;1.30;;
21420;SDS011;10871;50.144;8.428;2022-09-02T15:59:47;3.55;;;1.20;;
21420;SDS011;10871;50.144;8.428;2022-09-02T16:02:13;2.90;;;1.13;;
21420;SDS011;10871;50.144;8.428;2022-09-02T16:04:40;1.58;;;1.20;;
21420;SDS011;10871;50.144;8.428;2022-09-02T16:07:06;2.55;;;1.25;;
21420;SDS011;10871;50.144;8.428;2022-09-02T16:09:33;3.65;;;1.10;;
21420;SDS011;10871;50.144;8.428;2022-09-02T16:11:59;3.35;;;1.20;;
21420;SDS011;10871;50.144;8.428;2022-09-02T16:14:26;2.90;;;1.20;;
21420;SDS011;10871;50.144;8.428;2022-09-02T16:16:53;3.22;;;1.50;;
21420;SDS011;10871;50.144;8.428;2022-09-02T16:19:23;3.10;;;1.10;;
21420;SDS011;10871;50.144;8.428;2022-09-02T16:21:50;1.95;;;1.23;;
21420;SDS011;10871;50.144;8.428;2022-09-02T16:24:17;1.40;;;1.02;;
21420;SDS011;10871;50.144;8.428;2022-09-02T16:26:45;2.90;;;1.30;;
21420;SDS011;10871;50.144;8.428;2022-09-02T16:29:12;1.25;;;0.93;;
21420;SDS011;10871;50.144;8.428;2022-09-02T16:31:39;2.80;;;1.00;;
21420;SDS011;10871;50.144;8.428;2022-09-02T16:34:23;2.55;;;1.20;;
21420;SDS011;10871;50.144;8.428;2022-09-02T16:36:50;1.20;;;1.10;;
21420;SDS011;10871;50.144;8.428;2022-09-02T16:39:16;1.50;;;1.30;;
21420;SDS011;10871;50.144;8.428;2022-09-02T16:41:44;1.90;;;1.20;;
21420;SDS011;10871;50.144;8.428;2022-09-02T16:44:21;2.83;;;1.10;;
21420;SDS011;10871;50.144;8.428;2022-09-02T16:46:48;1.48;;;1.17;;
21420;SDS011;10871;50.144;8.428;2022-09-02T16:49:16;2.25;;;1.30;;
21420;SDS011;10871;50.144;8.428;2022-09-02T16:51:50;2.08;;;1.17;;
21420;SDS011;10871;50.144;8.428;2022-09-02T16:54:24;3.53;;;1.45;;
21420;SDS011;10871;50.144;8.428;2022-09-02T16:56:57;5.03;;;1.27;;
21420;SDS011;10871;50.144;8.428;2022-09-02T16:59:24;1.55;;;1.05;;
21420;SDS011;10871;50.144;8.428;2022-09-02T17:01:50;3.15;;;1.20;;
21420;SDS011;10871;50.144;8.428;2022-09-02T17:04:17;5.25;;;1.10;;